sensor_id;sensor_type;location;lat;lon;timestamp;P1;durP1;ratioP1;P2;durP2;ratioP2
11173;SDS011;5643;50.856;12.088;2023-06-14T00:00:36;2.00;;;1.73;;
11173;SDS011;5643;50.856;12.088;2023-06-14T00:03:06;1.80;;;1.70;;
11173;SDS011;5643;50.856;12.088;2023-06-14T00:05:35;1.90;;;1.80;;
11173;SDS011;5643;50.856;12.088;2023-06-14T00:08:06;1.70;;;1.60;;
11173;SDS011;5643;50.856;12.088;2023-06-14T00:10:35;2.13;;;1.93;;
11173;SDS011;5643;50.856;12.088;2023-06-14T00:13:02;2.43;;;1.73;;
11173;SDS011;5643;50.856;12.088;2023-06-14T00:15:30;1.90;;;1.80;;
11173;SDS011;5643;50.856;12.088;2023-06-14T00:17:57;1.80;;;1.70;;
11173;SDS011;5643;50.856;12.088;2023-06-14T00:20:26;2.07;;;1.83;;
11173;SDS011;5643;50.856;12.088;2023-06-14T00:22:53;1.77;;;1.67;;
11173;SDS011;5643;50.856;12.088;2023-06-14T00:25:21;1.90;;;1.80;;
11173;SDS011;5643;50.856;12.088;2023-06-14T00:27:50;1.97;;;1.87;;
11173;SDS011;5643;50.856;12.088;2023-06-14T00:30:17;1.93;;;1.83;;
11173;SDS011;5643;50.856;12.088;2023-06-14T00:32:45;1.70;;;1.60;;
11173;SDS011;5643;50.856;12.088;2023-06-14T00:35:12;1.80;;;1.70;;
11173;SDS011;5643;50.856;12.088;2023-06-14T00:37:39;2.00;;;1.90;;
11173;SDS011;5643;50.856;12.088;2023-06-14T00:40:07;1.37;;;1.27;;
11173;SDS011;5643;50.856;12.088;2023-06-14T00:42:34;1.73;;;1.63;;
11173;SDS011;5643;50.856;12.088;2023-06-14T00:45:03;1.70;;;1.60;;
11173;SDS011;5643;50.856;12.088;2023-06-14T00:47:30;1.50;;;1.40;;
11173;SDS011;5643;50.856;12.088;2023-06-14T00:49:57;1.60;;;1.50;;
11173;SDS011;5643;50.856;12.088;2023-06-14T00:52:26;1.20;;;1.20;;
11173;SDS011;5643;50.856;12.088;2023-06-14T00:54:53;1.73;;;1.63;;
11173;SDS011;5643;50.856;12.088;2023-06-14T00:57:20;2.30;;;2.10;;
11173;SDS011;5643;50.856;12.088;2023-06-14T00:59:49;2.37;;;2.00;;
11173;SDS011;5643;50.856;12.088;2023-06-14T01:02:18;2.37;;;2.10;;
11173;SDS011;5643;50.856;12.088;2023-06-14T01:04:46;2.27;;;1.90;;
11173;SDS011;5643;50.856;12.088;2023-06-14T01:07:17;1.60;;;1.50;;
11173;SDS011;5643;50.856;12.088;2023-06-14T01:09:48;1.30;;;1.30;;
11173;SDS011;5643;50.856;12.088;2023-06-14T01:12:21;1.57;;;1.40;;
11173;SDS011;5643;50.856;12.088;2023-06-14T01:14:51;1.40;;;1.30;;
11173;SDS011;5643;50.856;12.088;2023-06-14T01:17:20;1.73;;;1.63;;
11173;SDS011;5643;50.856;12.088;2023-06-14T01:19:48;1.67;;;1.57;;
11173;SDS011;5643;50.856;12.088;2023-06-14T01:22:24;1.60;;;1.50;;
11173;SDS011;5643;50.856;12.088;2023-06-14T01:24:54;2.00;;;1.80;;
11173;SDS011;5643;50.856;12.088;2023-06-14T01:27:22;2.13;;;1.93;;
11173;SDS011;5643;50.856;12.088;2023-06-14T01:29:54;1.93;;;1.83;;
11173;SDS011;5643;50.856;12.088;2023-06-14T01:32:22;2.27;;;2.07;;
11173;SDS011;5643;50.856;12.088;2023-06-14T01:34:50;2.57;;;2.37;;
11173;SDS011;5643;50.856;12.088;2023-06-14T01:37:17;2.20;;;2.10;;
11173;SDS011;5643;50.856;12.088;2023-06-14T01:39:44;1.93;;;1.83;;
11173;SDS011;5643;50.856;12.088;2023-06-14T01:42:14;1.70;;;1.60;;
11173;SDS011;5643;50.856;12.088;2023-06-14T01:44:41;1.60;;;1.50;;
11173;SDS011;5643;50.856;12.088;2023-06-14T01:47:09;1.67;;;1.57;;
11173;SDS011;5643;50.856;12.088;2023-06-14T01:49:38;2.60;;;1.60;;
11173;SDS011;5643;50.856;12.088;2023-06-14T01:52:06;1.80;;;1.70;;
11173;SDS011;5643;50.856;12.088;2023-06-14T01:54:35;1.70;;;1.60;;
11173;SDS011;5643;50.856;12.088;2023-06-14T01:57:07;1.60;;;1.50;;
11173;SDS011;5643;50.856;12.088;2023-06-14T01:59:37;1.97;;;1.77;;
11173;SDS011;5643;50.856;12.088;2023-06-14T02:02:04;1.73;;;1.63;;
11173;SDS011;5643;50.856;12.088;2023-06-14T02:04:31;1.60;;;1.50;;
11173;SDS011;5643;50.856;12.088;2023-06-14T02:06:58;1.70;;;1.60;;
11173;SDS011;5643;50.856;12.088;2023-06-14T02:09:26;2.10;;;2.00;;
11173;SDS011;5643;50.856;12.088;2023-06-14T02:11:53;2.00;;;1.90;;
11173;SDS011;5643;50.856;12.088;2023-06-14T02:14:20;1.97;;;1.77;;
11173;SDS011;5643;50.856;12.088;2023-06-14T02:16:50;1.80;;;1.70;;
11173;SDS011;5643;50.856;12.088;2023-06-14T02:19:18;1.63;;;1.53;;
11173;SDS011;5643;50.856;12.088;2023-06-14T02:21:46;1.77;;;1.67;;
11173;SDS011;5643;50.856;12.088;2023-06-14T02:24:13;1.77;;;1.67;;
11173;SDS011;5643;50.856;12.088;2023-06-14T02:26:41;1.97;;;1.87;;
11173;SDS011;5643;50.856;12.088;2023-06-14T02:29:08;2.10;;;2.00;;
11173;SDS011;5643;50.856;12.088;2023-06-14T02:31:38;1.90;;;1.80;;
11173;SDS011;5643;50.856;12.088;2023-06-14T02:34:06;1.80;;;1.70;;
11173;SDS011;5643;50.856;12.088;2023-06-14T02:36:34;2.00;;;1.80;;
11173;SDS011;5643;50.856;12.088;2023-06-14T02:39:07;2.47;;;1.90;;
11173;SDS011;5643;50.856;12.088;2023-06-14T02:41:35;1.70;;;1.60;;
11173;SDS011;5643;50.856;12.088;2023-06-14T02:44:02;3.13;;;2.27;;
11173;SDS011;5643;50.856;12.088;2023-06-14T02:46:29;2.00;;;1.90;;
11173;SDS011;5643;50.856;12.088;2023-06-14T02:48:56;1.90;;;1.80;;
11173;SDS011;5643;50.856;12.088;2023-06-14T02:51:25;1.70;;;1.60;;
11173;SDS011;5643;50.856;12.088;2023-06-14T02:53:52;2.07;;;1.97;;
11173;SDS011;5643;50.856;12.088;2023-06-14T02:56:19;1.80;;;1.70;;
11173;SDS011;5643;50.856;12.088;2023-06-14T02:58:48;1.87;;;1.77;;
11173;SDS011;5643;50.856;12.088;2023-06-14T03:01:16;1.87;;;1.77;;
11173;SDS011;5643;50.856;12.088;2023-06-14T03:03:43;1.67;;;1.57;;
11173;SDS011;5643;50.856;12.088;2023-06-14T03:06:10;1.27;;;1.27;;
11173;SDS011;5643;50.856;12.088;2023-06-14T03:08:41;1.63;;;1.53;;
11173;SDS011;5643;50.856;12.088;2023-06-14T03:11:08;1.73;;;1.63;;
11173;SDS011;5643;50.856;12.088;2023-06-14T03:13:35;1.80;;;1.70;;
11173;SDS011;5643;50.856;12.088;2023-06-14T03:16:03;1.73;;;1.63;;
11173;SDS011;5643;50.856;12.088;2023-06-14T03:18:30;2.10;;;1.90;;
11173;SDS011;5643;50.856;12.088;2023-06-14T03:21:02;1.77;;;1.50;;
11173;SDS011;5643;50.856;12.088;2023-06-14T03:23:30;1.80;;;1.70;;
11173;SDS011;5643;50.856;12.088;2023-06-14T03:25:59;1.60;;;1.50;;
11173;SDS011;5643;50.856;12.088;2023-06-14T03:28:26;1.73;;;1.63;;
11173;SDS011;5643;50.856;12.088;2023-06-14T03:30:53;1.80;;;1.70;;
11173;SDS011;5643;50.856;12.088;2023-06-14T03:33:20;1.70;;;1.60;;
11173;SDS011;5643;50.856;12.088;2023-06-14T03:35:47;1.97;;;1.87;;
11173;SDS011;5643;50.856;12.088;2023-06-14T03:38:15;2.13;;;1.97;;
11173;SDS011;5643;50.856;12.088;2023-06-14T03:40:43;1.70;;;1.60;;
11173;SDS011;5643;50.856;12.088;2023-06-14T03:43:12;1.87;;;1.77;;
11173;SDS011;5643;50.856;12.088;2023-06-14T03:45:42;1.93;;;1.83;;
11173;SDS011;5643;50.856;12.088;2023-06-14T03:48:09;1.40;;;1.30;;
11173;SDS011;5643;50.856;12.088;2023-06-14T03:50:36;1.80;;;1.70;;
11173;SDS011;5643;50.856;12.088;2023-06-14T03:53:07;1.30;;;1.30;;
11173;SDS011;5643;50.856;12.088;2023-06-14T03:55:34;1.53;;;1.43;;
11173;SDS011;5643;50.856;12.088;2023-06-14T03:58:01;1.80;;;1.70;;
11173;SDS011;5643;50.856;12.088;2023-06-14T04:00:29;1.83;;;1.73;;
11173;SDS011;5643;50.856;12.088;2023-06-14T04:02:57;2.20;;;2.00;;
11173;SDS011;5643;50.856;12.088;2023-06-14T04:05:25;1.80;;;1.70;;
11173;SDS011;5643;50.856;12.088;2023-06-14T04:07:55;1.77;;;1.67;;
11173;SDS011;5643;50.856;12.088;2023-06-14T04:10:22;1.73;;;1.63;;
11173;SDS011;5643;50.856;12.088;2023-06-14T04:12:49;2.43;;;2.23;;
11173;SDS011;5643;50.856;12.088;2023-06-14T04:15:18;1.90;;;1.80;;
11173;SDS011;5643;50.856;12.088;2023-06-14T04:17:46;1.97;;;1.87;;
11173;SDS011;5643;50.856;12.088;2023-06-14T04:20:13;2.70;;;2.50;;
11173;SDS011;5643;50.856;12.088;2023-06-14T04:22:43;2.23;;;2.13;;
11173;SDS011;5643;50.856;12.088;2023-06-14T04:25:10;1.70;;;1.60;;
11173;SDS011;5643;50.856;12.088;2023-06-14T04:27:37;1.60;;;1.50;;
11173;SDS011;5643;50.856;12.088;2023-06-14T04:30:05;1.97;;;1.87;;
11173;SDS011;5643;50.856;12.088;2023-06-14T04:32:33;2.20;;;2.00;;
11173;SDS011;5643;50.856;12.088;2023-06-14T04:35:07;1.63;;;1.53;;
11173;SDS011;5643;50.856;12.088;2023-06-14T04:37:34;2.00;;;1.90;;
11173;SDS011;5643;50.856;12.088;2023-06-14T04:40:06;2.90;;;2.70;;
11173;SDS011;5643;50.856;12.088;2023-06-14T04:42:33;2.20;;;2.10;;
11173;SDS011;5643;50.856;12.088;2023-06-14T04:45:02;1.97;;;1.87;;
11173;SDS011;5643;50.856;12.088;2023-06-14T04:47:30;2.60;;;2.40;;
11173;SDS011;5643;50.856;12.088;2023-06-14T04:49:58;2.40;;;2.20;;
11173;SDS011;5643;50.856;12.088;2023-06-14T04:52:27;2.67;;;2.47;;
11173;SDS011;5643;50.856;12.088;2023-06-14T04:54:56;2.70;;;2.30;;
11173;SDS011;5643;50.856;12.088;2023-06-14T04:57:23;2.27;;;2.10;;
11173;SDS011;5643;50.856;12.088;2023-06-14T04:59:51;2.50;;;2.30;;
11173;SDS011;5643;50.856;12.088;2023-06-14T05:02:21;2.80;;;2.60;;
11173;SDS011;5643;50.856;12.088;2023-06-14T05:04:49;2.93;;;2.07;;
11173;SDS011;5643;50.856;12.088;2023-06-14T05:07:16;2.57;;;2.37;;
11173;SDS011;5643;50.856;12.088;2023-06-14T05:09:45;2.50;;;2.40;;
11173;SDS011;5643;50.856;12.088;2023-06-14T05:12:12;2.83;;;2.63;;
11173;SDS011;5643;50.856;12.088;2023-06-14T05:14:43;2.97;;;2.57;;
11173;SDS011;5643;50.856;12.088;2023-06-14T05:17:10;2.40;;;2.20;;
11173;SDS011;5643;50.856;12.088;2023-06-14T05:19:38;2.60;;;2.40;;
11173;SDS011;5643;50.856;12.088;2023-06-14T05:22:05;2.57;;;2.30;;
11173;SDS011;5643;50.856;12.088;2023-06-14T05:24:33;1.90;;;1.80;;
11173;SDS011;5643;50.856;12.088;2023-06-14T05:27:01;2.13;;;2.03;;
11173;SDS011;5643;50.856;12.088;2023-06-14T05:29:29;2.20;;;2.00;;
11173;SDS011;5643;50.856;12.088;2023-06-14T05:31:57;2.30;;;2.10;;
11173;SDS011;5643;50.856;12.088;2023-06-14T05:34:24;2.37;;;2.27;;
11173;SDS011;5643;50.856;12.088;2023-06-14T05:36:51;2.00;;;1.90;;
11173;SDS011;5643;50.856;12.088;2023-06-14T05:39:18;2.73;;;2.50;;
11173;SDS011;5643;50.856;12.088;2023-06-14T05:41:46;2.70;;;2.50;;
11173;SDS011;5643;50.856;12.088;2023-06-14T05:44:14;1.93;;;1.83;;
11173;SDS011;5643;50.856;12.088;2023-06-14T05:46:43;3.83;;;2.13;;
11173;SDS011;5643;50.856;12.088;2023-06-14T05:49:10;2.20;;;2.00;;
11173;SDS011;5643;50.856;12.088;2023-06-14T05:51:37;2.13;;;1.93;;
11173;SDS011;5643;50.856;12.088;2023-06-14T05:54:05;2.60;;;2.40;;
11173;SDS011;5643;50.856;12.088;2023-06-14T05:56:32;2.30;;;2.20;;
11173;SDS011;5643;50.856;12.088;2023-06-14T05:59:00;2.60;;;2.40;;
11173;SDS011;5643;50.856;12.088;2023-06-14T06:01:29;2.90;;;2.27;;
11173;SDS011;5643;50.856;12.088;2023-06-14T06:03:58;2.60;;;2.40;;
11173;SDS011;5643;50.856;12.088;2023-06-14T06:06:25;3.90;;;2.37;;
11173;SDS011;5643;50.856;12.088;2023-06-14T06:08:52;2.57;;;2.37;;
11173;SDS011;5643;50.856;12.088;2023-06-14T06:11:20;2.43;;;2.23;;
11173;SDS011;5643;50.856;12.088;2023-06-14T06:13:48;2.90;;;2.10;;
11173;SDS011;5643;50.856;12.088;2023-06-14T06:16:18;2.27;;;2.17;;
11173;SDS011;5643;50.856;12.088;2023-06-14T06:18:47;2.77;;;2.57;;
11173;SDS011;5643;50.856;12.088;2023-06-14T06:21:14;2.73;;;2.53;;
11173;SDS011;5643;50.856;12.088;2023-06-14T06:23:42;2.63;;;2.03;;
11173;SDS011;5643;50.856;12.088;2023-06-14T06:26:09;2.73;;;1.80;;
11173;SDS011;5643;50.856;12.088;2023-06-14T06:28:37;2.30;;;2.20;;
11173;SDS011;5643;50.856;12.088;2023-06-14T06:31:04;2.70;;;2.40;;
11173;SDS011;5643;50.856;12.088;2023-06-14T06:33:31;3.20;;;2.20;;
11173;SDS011;5643;50.856;12.088;2023-06-14T06:36:00;2.60;;;2.40;;
11173;SDS011;5643;50.856;12.088;2023-06-14T06:38:28;3.10;;;2.60;;
11173;SDS011;5643;50.856;12.088;2023-06-14T06:40:55;2.77;;;2.57;;
11173;SDS011;5643;50.856;12.088;2023-06-14T06:43:23;3.40;;;2.37;;
11173;SDS011;5643;50.856;12.088;2023-06-14T06:45:51;2.53;;;2.20;;
11173;SDS011;5643;50.856;12.088;2023-06-14T06:48:18;2.60;;;2.40;;
11173;SDS011;5643;50.856;12.088;2023-06-14T06:50:45;3.30;;;3.10;;
11173;SDS011;5643;50.856;12.088;2023-06-14T06:53:17;2.93;;;2.67;;
11173;SDS011;5643;50.856;12.088;2023-06-14T06:55:45;2.80;;;2.60;;
11173;SDS011;5643;50.856;12.088;2023-06-14T06:58:13;3.70;;;2.93;;
11173;SDS011;5643;50.856;12.088;2023-06-14T07:00:40;2.70;;;2.50;;
11173;SDS011;5643;50.856;12.088;2023-06-14T07:03:08;2.80;;;2.60;;
11173;SDS011;5643;50.856;12.088;2023-06-14T07:05:35;3.70;;;2.87;;
11173;SDS011;5643;50.856;12.088;2023-06-14T07:08:02;2.50;;;2.30;;
11173;SDS011;5643;50.856;12.088;2023-06-14T07:10:31;2.20;;;2.10;;
11173;SDS011;5643;50.856;12.088;2023-06-14T07:12:58;5.20;;;2.80;;
11173;SDS011;5643;50.856;12.088;2023-06-14T07:15:25;3.77;;;2.80;;
11173;SDS011;5643;50.856;12.088;2023-06-14T07:17:52;2.60;;;2.40;;
11173;SDS011;5643;50.856;12.088;2023-06-14T07:20:19;2.60;;;2.40;;
11173;SDS011;5643;50.856;12.088;2023-06-14T07:22:48;2.63;;;2.43;;
11173;SDS011;5643;50.856;12.088;2023-06-14T07:25:15;2.60;;;2.40;;
11173;SDS011;5643;50.856;12.088;2023-06-14T07:27:47;2.87;;;2.57;;
11173;SDS011;5643;50.856;12.088;2023-06-14T07:30:14;2.77;;;2.57;;
11173;SDS011;5643;50.856;12.088;2023-06-14T07:32:42;3.13;;;2.70;;
11173;SDS011;5643;50.856;12.088;2023-06-14T07:35:09;2.60;;;2.40;;
11173;SDS011;5643;50.856;12.088;2023-06-14T07:37:36;2.77;;;2.57;;
11173;SDS011;5643;50.856;12.088;2023-06-14T07:40:04;2.03;;;1.90;;
11173;SDS011;5643;50.856;12.088;2023-06-14T07:42:33;2.50;;;2.30;;
11173;SDS011;5643;50.856;12.088;2023-06-14T07:45:02;2.90;;;2.70;;
11173;SDS011;5643;50.856;12.088;2023-06-14T07:47:30;2.67;;;2.27;;
11173;SDS011;5643;50.856;12.088;2023-06-14T07:49:57;2.43;;;2.30;;
11173;SDS011;5643;50.856;12.088;2023-06-14T07:52:25;3.07;;;2.87;;
11173;SDS011;5643;50.856;12.088;2023-06-14T07:54:52;3.30;;;3.00;;
11173;SDS011;5643;50.856;12.088;2023-06-14T07:57:19;3.13;;;2.50;;
11173;SDS011;5643;50.856;12.088;2023-06-14T07:59:47;2.63;;;2.43;;
11173;SDS011;5643;50.856;12.088;2023-06-14T08:02:16;2.57;;;2.37;;
11173;SDS011;5643;50.856;12.088;2023-06-14T08:04:45;2.73;;;2.40;;
11173;SDS011;5643;50.856;12.088;2023-06-14T08:07:14;2.27;;;2.07;;
11173;SDS011;5643;50.856;12.088;2023-06-14T08:09:42;2.47;;;2.30;;
11173;SDS011;5643;50.856;12.088;2023-06-14T08:12:09;2.30;;;2.20;;
11173;SDS011;5643;50.856;12.088;2023-06-14T08:14:36;2.17;;;2.07;;
11173;SDS011;5643;50.856;12.088;2023-06-14T08:17:04;3.93;;;2.70;;
11173;SDS011;5643;50.856;12.088;2023-06-14T08:19:33;2.67;;;2.30;;
11173;SDS011;5643;50.856;12.088;2023-06-14T08:22:03;2.33;;;2.23;;
11173;SDS011;5643;50.856;12.088;2023-06-14T08:24:30;2.07;;;1.97;;
11173;SDS011;5643;50.856;12.088;2023-06-14T08:26:58;2.37;;;2.20;;
11173;SDS011;5643;50.856;12.088;2023-06-14T08:29:26;2.70;;;2.50;;
11173;SDS011;5643;50.856;12.088;2023-06-14T08:31:56;2.93;;;2.73;;
11173;SDS011;5643;50.856;12.088;2023-06-14T08:34:26;2.30;;;2.10;;
11173;SDS011;5643;50.856;12.088;2023-06-14T08:36:55;2.50;;;2.30;;
11173;SDS011;5643;50.856;12.088;2023-06-14T08:39:23;2.60;;;2.40;;
11173;SDS011;5643;50.856;12.088;2023-06-14T08:41:50;2.80;;;2.60;;
11173;SDS011;5643;50.856;12.088;2023-06-14T08:44:19;6.70;;;3.40;;
11173;SDS011;5643;50.856;12.088;2023-06-14T08:46:47;2.10;;;2.00;;
11173;SDS011;5643;50.856;12.088;2023-06-14T08:49:16;2.70;;;2.50;;
11173;SDS011;5643;50.856;12.088;2023-06-14T08:51:43;2.20;;;2.00;;
11173;SDS011;5643;50.856;12.088;2023-06-14T08:54:15;3.13;;;2.30;;
11173;SDS011;5643;50.856;12.088;2023-06-14T08:56:42;2.80;;;2.60;;
11173;SDS011;5643;50.856;12.088;2023-06-14T08:59:09;2.70;;;2.47;;
11173;SDS011;5643;50.856;12.088;2023-06-14T09:01:38;2.47;;;2.28;;
11173;SDS011;5643;50.856;12.088;2023-06-14T09:04:07;2.23;;;2.13;;
11173;SDS011;5643;50.856;12.088;2023-06-14T09:06:34;2.00;;;1.80;;
11173;SDS011;5643;50.856;12.088;2023-06-14T09:09:02;2.10;;;2.00;;
11173;SDS011;5643;50.856;12.088;2023-06-14T09:11:32;2.53;;;2.17;;
11173;SDS011;5643;50.856;12.088;2023-06-14T09:14:00;2.42;;;2.22;;
11173;SDS011;5643;50.856;12.088;2023-06-14T09:16:27;2.50;;;2.30;;
11173;SDS011;5643;50.856;12.088;2023-06-14T09:18:55;3.40;;;2.20;;
11173;SDS011;5643;50.856;12.088;2023-06-14T09:21:22;2.08;;;1.70;;
11173;SDS011;5643;50.856;12.088;2023-06-14T09:23:49;1.95;;;1.85;;
11173;SDS011;5643;50.856;12.088;2023-06-14T09:26:17;1.50;;;1.40;;
11173;SDS011;5643;50.856;12.088;2023-06-14T09:28:46;2.35;;;2.10;;
11173;SDS011;5643;50.856;12.088;2023-06-14T09:31:15;3.40;;;2.20;;
11173;SDS011;5643;50.856;12.088;2023-06-14T09:33:42;2.17;;;2.08;;
11173;SDS011;5643;50.856;12.088;2023-06-14T09:36:14;2.05;;;1.73;;
11173;SDS011;5643;50.856;12.088;2023-06-14T09:38:44;3.50;;;2.05;;
11173;SDS011;5643;50.856;12.088;2023-06-14T09:41:18;2.28;;;2.10;;
11173;SDS011;5643;50.856;12.088;2023-06-14T09:43:47;2.20;;;2.00;;
11173;SDS011;5643;50.856;12.088;2023-06-14T09:46:15;2.30;;;2.10;;
11173;SDS011;5643;50.856;12.088;2023-06-14T09:48:43;1.98;;;1.88;;
11173;SDS011;5643;50.856;12.088;2023-06-14T09:51:10;1.98;;;1.88;;
11173;SDS011;5643;50.856;12.088;2023-06-14T09:53:40;1.98;;;1.88;;
11173;SDS011;5643;50.856;12.088;2023-06-14T09:56:09;2.05;;;1.95;;
11173;SDS011;5643;50.856;12.088;2023-06-14T09:58:37;2.40;;;2.20;;
11173;SDS011;5643;50.856;12.088;2023-06-14T10:01:08;2.20;;;1.90;;
11173;SDS011;5643;50.856;12.088;2023-06-14T10:03:39;2.30;;;2.10;;
11173;SDS011;5643;50.856;12.088;2023-06-14T10:06:07;2.13;;;2.00;;
11173;SDS011;5643;50.856;12.088;2023-06-14T10:08:36;2.00;;;1.90;;
11173;SDS011;5643;50.856;12.088;2023-06-14T10:11:04;2.20;;;2.00;;
11173;SDS011;5643;50.856;12.088;2023-06-14T10:13:31;2.20;;;2.10;;
11173;SDS011;5643;50.856;12.088;2023-06-14T10:16:02;2.53;;;2.22;;
11173;SDS011;5643;50.856;12.088;2023-06-14T10:18:36;2.20;;;2.00;;
11173;SDS011;5643;50.856;12.088;2023-06-14T10:21:08;2.83;;;1.88;;
11173;SDS011;5643;50.856;12.088;2023-06-14T10:23:40;2.10;;;2.00;;
11173;SDS011;5643;50.856;12.088;2023-06-14T10:26:08;2.17;;;2.08;;
11173;SDS011;5643;50.856;12.088;2023-06-14T10:28:37;2.20;;;2.10;;
11173;SDS011;5643;50.856;12.088;2023-06-14T10:31:05;2.30;;;2.10;;
11173;SDS011;5643;50.856;12.088;2023-06-14T10:33:32;2.03;;;1.92;;
11173;SDS011;5643;50.856;12.088;2023-06-14T10:39:00;1.90;;;1.80;;
11173;SDS011;5643;50.856;12.088;2023-06-14T10:41:28;1.90;;;1.80;;
11173;SDS011;5643;50.856;12.088;2023-06-14T10:46:55;2.20;;;1.92;;
11173;SDS011;5643;50.856;12.088;2023-06-14T10:49:36;1.92;;;1.83;;
11173;SDS011;5643;50.856;12.088;2023-06-14T10:52:11;3.65;;;2.58;;
11173;SDS011;5643;50.856;12.088;2023-06-14T10:55:05;2.00;;;1.90;;
11173;SDS011;5643;50.856;12.088;2023-06-14T10:57:35;2.50;;;2.30;;
11173;SDS011;5643;50.856;12.088;2023-06-14T11:00:05;2.13;;;2.03;;
11173;SDS011;5643;50.856;12.088;2023-06-14T11:05:24;2.50;;;2.30;;
11173;SDS011;5643;50.856;12.088;2023-06-14T11:08:00;2.33;;;2.20;;
11173;SDS011;5643;50.856;12.088;2023-06-14T11:10:36;2.60;;;1.92;;
11173;SDS011;5643;50.856;12.088;2023-06-14T11:13:04;1.80;;;1.70;;
11173;SDS011;5643;50.856;12.088;2023-06-14T11:15:35;2.30;;;2.20;;
11173;SDS011;5643;50.856;12.088;2023-06-14T11:18:02;1.90;;;1.80;;
11173;SDS011;5643;50.856;12.088;2023-06-14T11:20:31;2.03;;;1.92;;
11173;SDS011;5643;50.856;12.088;2023-06-14T11:22:58;2.00;;;1.90;;
11173;SDS011;5643;50.856;12.088;2023-06-14T11:25:27;1.80;;;1.70;;
11173;SDS011;5643;50.856;12.088;2023-06-14T11:27:56;1.80;;;1.70;;
11173;SDS011;5643;50.856;12.088;2023-06-14T11:30:24;1.60;;;1.50;;
11173;SDS011;5643;50.856;12.088;2023-06-14T11:32:52;2.50;;;2.30;;
11173;SDS011;5643;50.856;12.088;2023-06-14T11:35:21;3.08;;;2.58;;
11173;SDS011;5643;50.856;12.088;2023-06-14T11:37:52;2.10;;;2.00;;
11173;SDS011;5643;50.856;12.088;2023-06-14T11:40:23;2.22;;;2.00;;
11173;SDS011;5643;50.856;12.088;2023-06-14T11:42:53;2.70;;;1.90;;
11173;SDS011;5643;50.856;12.088;2023-06-14T11:45:26;1.60;;;1.50;;
11173;SDS011;5643;50.856;12.088;2023-06-14T11:47:54;2.13;;;2.03;;
11173;SDS011;5643;50.856;12.088;2023-06-14T11:50:22;1.92;;;1.73;;
11173;SDS011;5643;50.856;12.088;2023-06-14T11:52:52;2.10;;;2.00;;
11173;SDS011;5643;50.856;12.088;2023-06-14T11:55:19;2.00;;;1.90;;
11173;SDS011;5643;50.856;12.088;2023-06-14T11:57:46;1.95;;;1.85;;
11173;SDS011;5643;50.856;12.088;2023-06-14T12:00:14;2.10;;;2.00;;
11173;SDS011;5643;50.856;12.088;2023-06-14T12:02:51;2.45;;;2.20;;
11173;SDS011;5643;50.856;12.088;2023-06-14T12:05:20;1.88;;;1.77;;
11173;SDS011;5643;50.856;12.088;2023-06-14T12:07:47;2.67;;;1.90;;
11173;SDS011;5643;50.856;12.088;2023-06-14T12:10:16;1.80;;;1.70;;
11173;SDS011;5643;50.856;12.088;2023-06-14T12:12:43;1.80;;;1.70;;
11173;SDS011;5643;50.856;12.088;2023-06-14T12:15:10;1.88;;;1.77;;
11173;SDS011;5643;50.856;12.088;2023-06-14T12:17:39;1.90;;;1.80;;
11173;SDS011;5643;50.856;12.088;2023-06-14T12:20:10;1.88;;;1.77;;
11173;SDS011;5643;50.856;12.088;2023-06-14T12:22:42;1.67;;;1.58;;
11173;SDS011;5643;50.856;12.088;2023-06-14T12:25:23;1.50;;;1.42;;
11173;SDS011;5643;50.856;12.088;2023-06-14T12:27:52;1.60;;;1.50;;
11173;SDS011;5643;50.856;12.088;2023-06-14T12:30:20;1.75;;;1.60;;
11173;SDS011;5643;50.856;12.088;2023-06-14T12:32:47;1.90;;;1.80;;
11173;SDS011;5643;50.856;12.088;2023-06-14T12:35:16;1.70;;;1.60;;
11173;SDS011;5643;50.856;12.088;2023-06-14T12:37:43;1.70;;;1.60;;
11173;SDS011;5643;50.856;12.088;2023-06-14T12:40:11;1.60;;;1.50;;
11173;SDS011;5643;50.856;12.088;2023-06-14T12:42:38;1.38;;;1.27;;
11173;SDS011;5643;50.856;12.088;2023-06-14T12:45:06;1.38;;;1.27;;
11173;SDS011;5643;50.856;12.088;2023-06-14T12:47:33;1.48;;;1.38;;
11173;SDS011;5643;50.856;12.088;2023-06-14T12:50:01;1.50;;;1.30;;
11173;SDS011;5643;50.856;12.088;2023-06-14T12:52:29;1.35;;;1.33;;
11173;SDS011;5643;50.856;12.088;2023-06-14T12:54:57;1.70;;;1.60;;
11173;SDS011;5643;50.856;12.088;2023-06-14T12:57:24;1.70;;;1.60;;
11173;SDS011;5643;50.856;12.088;2023-06-14T12:59:52;1.65;;;1.52;;
11173;SDS011;5643;50.856;12.088;2023-06-14T13:02:19;1.35;;;1.35;;
11173;SDS011;5643;50.856;12.088;2023-06-14T13:04:48;1.50;;;1.40;;
11173;SDS011;5643;50.856;12.088;2023-06-14T13:07:15;1.30;;;1.20;;
11173;SDS011;5643;50.856;12.088;2023-06-14T13:09:44;1.50;;;1.40;;
11173;SDS011;5643;50.856;12.088;2023-06-14T13:12:11;1.20;;;1.17;;
11173;SDS011;5643;50.856;12.088;2023-06-14T13:14:39;1.50;;;1.40;;
11173;SDS011;5643;50.856;12.088;2023-06-14T13:17:08;1.20;;;1.20;;
11173;SDS011;5643;50.856;12.088;2023-06-14T13:19:36;1.73;;;1.60;;
11173;SDS011;5643;50.856;12.088;2023-06-14T13:22:03;1.90;;;1.80;;
11173;SDS011;5643;50.856;12.088;2023-06-14T13:24:30;1.33;;;1.33;;
11173;SDS011;5643;50.856;12.088;2023-06-14T13:26:59;1.45;;;1.23;;
11173;SDS011;5643;50.856;12.088;2023-06-14T13:29:26;1.38;;;1.27;;
11173;SDS011;5643;50.856;12.088;2023-06-14T13:31:54;1.42;;;1.33;;
11173;SDS011;5643;50.856;12.088;2023-06-14T13:34:21;1.40;;;1.30;;
11173;SDS011;5643;50.856;12.088;2023-06-14T13:36:48;2.42;;;1.55;;
11173;SDS011;5643;50.856;12.088;2023-06-14T13:39:16;1.52;;;1.42;;
11173;SDS011;5643;50.856;12.088;2023-06-14T13:41:43;1.10;;;1.10;;
11173;SDS011;5643;50.856;12.088;2023-06-14T13:44:12;1.05;;;1.00;;
11173;SDS011;5643;50.856;12.088;2023-06-14T13:46:40;1.65;;;1.55;;
11173;SDS011;5643;50.856;12.088;2023-06-14T13:49:08;1.42;;;1.38;;
11173;SDS011;5643;50.856;12.088;2023-06-14T13:51:36;1.33;;;1.33;;
11173;SDS011;5643;50.856;12.088;2023-06-14T13:54:03;1.20;;;1.20;;
11173;SDS011;5643;50.856;12.088;2023-06-14T13:56:30;1.17;;;1.17;;
11173;SDS011;5643;50.856;12.088;2023-06-14T13:58:58;1.30;;;1.20;;
11173;SDS011;5643;50.856;12.088;2023-06-14T14:01:27;1.65;;;1.40;;
11173;SDS011;5643;50.856;12.088;2023-06-14T14:03:54;1.70;;;1.60;;
11173;SDS011;5643;50.856;12.088;2023-06-14T14:06:22;1.30;;;1.20;;
11173;SDS011;5643;50.856;12.088;2023-06-14T14:08:49;1.27;;;1.27;;
11173;SDS011;5643;50.856;12.088;2023-06-14T14:11:16;1.40;;;1.33;;
11173;SDS011;5643;50.856;12.088;2023-06-14T14:13:43;1.35;;;1.35;;
11173;SDS011;5643;50.856;12.088;2023-06-14T14:16:12;1.60;;;1.50;;
11173;SDS011;5643;50.856;12.088;2023-06-14T14:18:40;1.58;;;1.48;;
11173;SDS011;5643;50.856;12.088;2023-06-14T14:21:08;1.67;;;1.40;;
11173;SDS011;5643;50.856;12.088;2023-06-14T14:23:35;1.40;;;1.30;;
11173;SDS011;5643;50.856;12.088;2023-06-14T14:26:02;1.40;;;1.30;;
11173;SDS011;5643;50.856;12.088;2023-06-14T14:28:30;1.58;;;1.33;;
11173;SDS011;5643;50.856;12.088;2023-06-14T14:30:58;1.48;;;1.38;;
11173;SDS011;5643;50.856;12.088;2023-06-14T14:33:26;1.60;;;1.50;;
11173;SDS011;5643;50.856;12.088;2023-06-14T14:35:54;1.20;;;1.20;;
11173;SDS011;5643;50.856;12.088;2023-06-14T14:38:22;1.50;;;1.40;;
11173;SDS011;5643;50.856;12.088;2023-06-14T14:40:49;1.35;;;1.20;;
11173;SDS011;5643;50.856;12.088;2023-06-14T14:43:16;1.48;;;1.38;;
11173;SDS011;5643;50.856;12.088;2023-06-14T14:45:44;1.20;;;1.20;;
11173;SDS011;5643;50.856;12.088;2023-06-14T14:48:11;0.95;;;0.95;;
11173;SDS011;5643;50.856;12.088;2023-06-14T14:50:38;1.10;;;1.10;;
11173;SDS011;5643;50.856;12.088;2023-06-14T14:53:07;1.48;;;1.38;;
11173;SDS011;5643;50.856;12.088;2023-06-14T14:55:34;1.35;;;1.27;;
11173;SDS011;5643;50.856;12.088;2023-06-14T14:58:03;1.33;;;1.27;;
11173;SDS011;5643;50.856;12.088;2023-06-14T15:00:32;1.40;;;1.40;;
11173;SDS011;5643;50.856;12.088;2023-06-14T15:02:59;1.60;;;1.50;;